Time;durP1;ratioP1;P1;durP2;ratioP2;P2;SDS_P1;SDS_P2;PMS_P1;PMS_P2;Temp;Humidity;BMP_temperature;BMP_pressure;BME280_temperature;BME280_humidity;BME280_pressure;Samples;Min_cycle;Max_cycle;Signal;HPM_P1;HPM_P2
2022/12/13 00:01:50;;;;;;;4.88;3.67;;;3.80;99.90;;;;;;5073510;28;20021;-83
2022/12/13 00:04:16;;;;;;;;;;;3.90;99.90;;;;;;5090978;28;20031;-83
2022/12/13 00:06:42;;;;;;;5.38;4.03;;;3.80;99.90;;;;;;5074964;28;19904;-82
2022/12/13 00:09:11;;;;;;;5.85;3.90;;;3.70;99.90;;;;;;5073126;28;20024;-83
2022/12/13 00:11:37;;;;;;;4.55;3.40;;;3.80;99.90;;;;;;5074278;28;20024;-83
2022/12/13 00:14:02;;;;;;;5.15;3.75;;;3.80;99.90;;;;;;5074504;28;20023;-83
2022/12/13 00:16:28;;;;;;;4.68;3.35;;;3.90;99.90;;;;;;5074717;28;20051;-83
2022/12/13 00:18:56;;;;;;;5.03;3.65;;;3.90;99.90;;;;;;5074612;28;20111;-83
2022/12/13 00:21:25;;;;;;;5.07;3.30;;;3.80;99.90;;;;;;5074176;28;20029;-83
2022/12/13 00:23:51;;;;;;;3.40;3.00;;;3.80;99.90;;;;;;5066788;28;20091;-83
2022/12/13 00:26:21;;;;;;;6.15;3.53;;;3.90;99.90;;;;;;5054280;28;20072;-82
2022/12/13 00:28:48;;;;;;;4.32;3.55;;;3.80;99.90;;;;;;5054262;28;20025;-83
2022/12/13 00:31:14;;;;;;;3.55;2.97;;;3.80;99.90;;;;;;5052652;28;20037;-83
2022/12/13 00:33:40;;;;;;;4.50;3.13;;;3.90;99.90;;;;;;5054217;28;20029;-82
2022/12/13 00:36:07;;;;;;;6.53;3.72;;;3.80;99.90;;;;;;5069816;28;20033;-83
2022/12/13 00:38:34;;;;;;;4.53;3.17;;;3.90;99.90;;;;;;5053657;28;20017;-83
2022/12/13 00:41:09;;;;;;;3.25;2.63;;;3.90;99.90;;;;;;5053580;28;20140;-83
2022/12/13 00:43:35;;;;;;;7.15;3.80;;;3.80;99.90;;;;;;5069109;28;20017;-83
2022/12/13 00:46:01;;;;;;;6.30;3.47;;;3.80;99.90;;;;;;5074532;28;20082;-83
2022/12/13 00:48:27;;;;;;;4.82;3.20;;;3.80;99.90;;;;;;5072509;28;20031;-83
2022/12/13 00:50:52;;;;;;;4.57;3.35;;;3.70;99.90;;;;;;5073807;28;20089;-83
2022/12/13 00:53:18;;;;;;;4.50;3.15;;;3.80;99.90;;;;;;5073625;28;20509;-83
2022/12/13 00:55:44;;;;;;;4.38;2.83;;;3.70;99.90;;;;;;5073403;28;20051;-83
2022/12/13 00:58:09;;;;;;;3.58;2.97;;;3.60;99.90;;;;;;5073559;28;20016;-83
2022/12/13 01:00:35;;;;;;;4.90;3.65;;;3.60;99.90;;;;;;5073951;28;20509;-83
2022/12/13 01:03:19;;;;;;;2.95;2.53;;;3.60;99.90;;;;;;5072350;28;20105;-84
2022/12/13 01:05:47;;;;;;;4.13;3.10;;;3.60;99.90;;;;;;5073473;28;20031;-84
2022/12/13 01:08:13;;;;;;;3.53;2.72;;;3.60;99.90;;;;;;5073028;28;20024;-84
2022/12/13 01:10:44;;;;;;;3.88;2.60;;;3.60;99.90;;;;;;5072070;28;20025;-84
2022/12/13 01:13:10;;;;;;;3.80;2.30;;;3.60;99.90;;;;;;5073373;28;20107;-84
2022/12/13 01:15:43;;;;;;;3.88;2.75;;;3.60;99.90;;;;;;5073261;28;20142;-84
2022/12/13 01:18:09;;;;;;;3.45;2.63;;;3.50;99.90;;;;;;5073334;28;20020;-84
2022/12/13 01:20:35;;;;;;;3.00;2.50;;;3.60;99.90;;;;;;5073728;28;20093;-83
2022/12/13 01:23:02;;;;;;;3.15;2.70;;;3.60;99.90;;;;;;5073139;28;20025;-84
2022/12/13 01:25:27;;;;;;;2.97;2.30;;;3.60;99.90;;;;;;5073068;28;20025;-84
2022/12/13 01:27:53;;;;;;;2.78;2.10;;;3.80;99.90;;;;;;5073036;28;20520;-84
2022/12/13 01:30:19;;;;;;;3.30;2.40;;;3.70;99.90;;;;;;5073353;28;20024;-84
2022/12/13 01:32:44;;;;;;;2.95;2.50;;;3.80;99.90;;;;;;5072656;28;20055;-84
2022/12/13 01:35:12;;;;;;;3.20;2.25;;;3.80;99.90;;;;;;5073816;28;20033;-83
2022/12/13 01:37:38;;;;;;;3.60;2.35;;;3.70;99.90;;;;;;5072664;28;20108;-84
2022/12/13 01:40:04;;;;;;;3.65;2.72;;;3.80;99.90;;;;;;5073252;28;20128;-84
2022/12/13 01:42:30;;;;;;;2.70;2.50;;;3.90;99.90;;;;;;5072461;28;20016;-83
2022/12/13 01:44:58;;;;;;;2.58;2.33;;;3.90;99.90;;;;;;5072809;28;20027;-84
2022/12/13 01:47:41;;;;;;;2.92;2.40;;;3.90;99.90;;;;;;5071846;28;20036;-83
2022/12/13 01:50:19;;;;;;;2.47;2.03;;;3.90;99.90;;;;;;5072824;28;20017;-83
2022/12/13 01:52:46;;;;;;;3.38;2.65;;;4.00;99.90;;;;;;5072858;28;20021;-84
2022/12/13 01:55:13;;;;;;;3.38;2.42;;;4.00;99.90;;;;;;5087883;28;20505;-83
2022/12/13 01:57:42;;;;;;;4.18;3.78;;;4.00;99.90;;;;;;5072866;28;20051;-83
2022/12/13 02:00:09;;;;;;;5.60;3.13;;;4.00;99.90;;;;;;5072926;28;20091;-84
2022/12/13 02:02:35;;;;;;;5.45;2.83;;;4.10;99.90;;;;;;5087771;28;20024;-83
2022/12/13 02:05:15;;;;;;;3.58;2.13;;;4.10;99.90;;;;;;5071208;28;20557;-84
2022/12/13 02:07:43;;;;;;;2.67;2.40;;;4.10;99.90;;;;;;5072232;28;20020;-84
2022/12/13 02:10:09;;;;;;;2.63;2.33;;;4.10;99.90;;;;;;5072849;28;20497;-83
2022/12/13 02:12:36;;;;;;;2.60;2.40;;;4.10;99.90;;;;;;5071771;28;20478;-84
2022/12/13 02:15:13;;;;;;;3.90;2.80;;;4.20;99.90;;;;;;5071651;28;20138;-84
2022/12/13 02:21:31;;;;;;;2.72;2.35;;;4.10;99.90;;;;;;5068418;28;20074;-84
2022/12/13 02:24:02;;;;;;;2.60;2.40;;;4.10;99.90;;;;;;5069101;28;20081;-84
2022/12/13 02:27:02;;;;;;;2.53;2.10;;;4.10;99.90;;;;;;5071956;28;20070;-84
2022/12/13 02:29:40;;;;;;;2.33;2.13;;;4.10;99.90;;;;;;5070478;28;20036;-84
2022/12/13 02:32:20;;;;;;;2.90;2.45;;;4.10;99.90;;;;;;5072398;28;20099;-84
2022/12/13 02:35:03;;;;;;;3.70;2.70;;;4.20;99.90;;;;;;5072229;28;20024;-84
2022/12/13 02:37:52;;;;;;;2.72;2.47;;;4.10;99.90;;;;;;5072066;28;20025;-84
2022/12/13 02:40:31;;;;;;;2.85;2.35;;;4.00;99.90;;;;;;5072196;28;20032;-83
2022/12/13 02:43:05;;;;;;;2.83;2.30;;;4.00;99.90;;;;;;5069940;28;20094;-84
2022/12/13 02:45:46;;;;;;;2.58;2.38;;;3.90;99.90;;;;;;5070960;28;20089;-84
2022/12/13 02:48:16;;;;;;;4.43;2.67;;;4.00;99.90;;;;;;5072091;28;20021;-83
2022/12/13 02:50:43;;;;;;;2.97;2.40;;;4.00;99.90;;;;;;5071926;28;20032;-83
2022/12/13 02:53:11;;;;;;;3.50;2.22;;;4.00;99.90;;;;;;5087332;28;20052;-83
2022/12/13 02:55:38;;;;;;;2.58;2.38;;;4.00;99.90;;;;;;5071988;28;20099;-83
2022/12/13 02:58:04;;;;;;;2.75;2.00;;;3.90;99.90;;;;;;5071935;28;20020;-83
2022/12/13 03:01:04;;;;;;;2.95;2.10;;;3.90;99.90;;;;;;5087216;28;20032;-84
2022/12/13 03:03:35;;;;;;;3.25;2.25;;;4.00;99.90;;;;;;5072042;28;20044;-84
2022/12/13 03:06:29;;;;;;;3.90;2.45;;;4.10;99.90;;;;;;5070446;28;20021;-84
2022/12/13 03:09:15;;;;;;;2.70;2.20;;;4.10;99.90;;;;;;5071796;28;20047;-83
2022/12/13 03:14:34;;;;;;;3.15;2.30;;;4.00;99.90;;;;;;5071575;28;20043;-84
2022/12/13 03:17:03;;;;;;;2.80;2.13;;;4.00;99.90;;;;;;5070354;28;20217;-84
2022/12/13 03:19:29;;;;;;;2.63;2.20;;;3.90;99.90;;;;;;5071553;28;20020;-84
2022/12/13 03:21:55;;;;;;;2.42;2.20;;;3.80;99.90;;;;;;5071285;28;20078;-83
2022/12/13 03:24:21;;;;;;;2.05;1.85;;;3.80;99.90;;;;;;5061436;28;20098;-83
2022/12/13 03:26:49;;;;;;;2.88;2.15;;;3.90;99.90;;;;;;5050167;28;20123;-84
2022/12/13 03:29:15;;;;;;;2.55;2.20;;;3.90;99.90;;;;;;5051328;28;20482;-83
2022/12/13 03:31:41;;;;;;;2.30;2.08;;;3.80;99.90;;;;;;5051292;28;20032;-83
2022/12/13 03:34:07;;;;;;;2.20;1.90;;;3.90;99.90;;;;;;5066041;28;20032;-83
2022/12/13 03:36:33;;;;;;;2.58;1.90;;;3.90;99.90;;;;;;5051387;28;20064;-83
2022/12/13 03:38:58;;;;;;;1.95;1.73;;;3.90;99.90;;;;;;5051075;28;20045;-83
2022/12/13 03:41:30;;;;;;;2.08;1.80;;;3.90;99.90;;;;;;5049791;28;20047;-83
2022/12/13 03:43:58;;;;;;;2.67;1.95;;;3.90;99.90;;;;;;5088433;28;20024;-84
2022/12/13 03:46:23;;;;;;;2.70;2.08;;;3.90;99.90;;;;;;5091398;28;20059;-84
2022/12/13 03:48:49;;;;;;;2.05;1.67;;;4.00;99.90;;;;;;5091660;28;20061;-84
2022/12/13 03:51:15;;;;;;;2.38;2.17;;;4.00;99.90;;;;;;5091268;28;20035;-84
2022/12/13 03:53:40;;;;;;;2.17;1.90;;;4.10;99.90;;;;;;5091424;28;20028;-83
2022/12/13 03:56:06;;;;;;;2.42;2.22;;;4.10;99.90;;;;;;5091511;28;20028;-84
2022/12/13 03:58:34;;;;;;;2.55;2.00;;;4.00;99.90;;;;;;5091263;28;20024;-84
2022/12/13 04:00:59;;;;;;;2.15;1.95;;;4.10;99.90;;;;;;5091158;28;20028;-83
2022/12/13 04:03:25;;;;;;;2.20;1.80;;;4.00;99.90;;;;;;5091508;28;20031;-83
2022/12/13 04:05:50;;;;;;;2.22;1.80;;;4.00;99.90;;;;;;5090924;28;20052;-83
2022/12/13 04:08:16;;;;;;;2.35;1.98;;;4.10;99.90;;;;;;5091061;28;20024;-83
2022/12/13 04:10:42;;;;;;;1.92;1.80;;;4.10;99.90;;;;;;5091034;28;20089;-83
2022/12/13 04:15:54;;;;;;;1.85;1.73;;;4.10;99.90;;;;;;5091392;28;20085;-84
2022/12/13 04:18:22;;;;;;;2.25;2.05;;;4.20;99.90;;;;;;5091266;28;20024;-83
2022/12/13 04:20:48;;;;;;;2.10;1.90;;;4.20;99.90;;;;;;5091056;28;20511;-83
2022/12/13 04:23:14;;;;;;;3.33;2.53;;;4.10;99.90;;;;;;5090062;28;20016;-83
2022/12/13 04:25:40;;;;;;;2.42;2.00;;;4.00;99.90;;;;;;5070645;28;20033;-83
2022/12/13 04:28:07;;;;;;;3.25;2.00;;;4.10;99.90;;;;;;5070906;28;20029;-83
2022/12/13 04:30:33;;;;;;;2.30;2.10;;;4.10;99.90;;;;;;5070802;28;20083;-83
2022/12/13 04:32:59;;;;;;;2.08;1.85;;;4.20;99.90;;;;;;5070810;28;20031;-83
2022/12/13 04:35:25;;;;;;;2.53;2.15;;;4.20;99.90;;;;;;5086262;28;20047;-83
2022/12/13 04:37:51;;;;;;;2.85;2.10;;;4.10;99.90;;;;;;5069280;28;20052;-83
2022/12/13 04:40:16;;;;;;;3.83;2.22;;;4.10;99.90;;;;;;5070687;28;20025;-84
2022/12/13 04:42:42;;;;;;;2.65;1.80;;;4.20;99.90;;;;;;5079011;28;20085;-84
2022/12/13 04:45:12;;;;;;;2.72;2.20;;;4.20;99.90;;;;;;5091977;28;20080;-83
2022/12/13 04:47:38;;;;;;;3.22;2.45;;;4.30;99.90;;;;;;5094559;28;20016;-84
2022/12/13 04:50:04;;;;;;;3.65;2.60;;;4.40;99.90;;;;;;5094502;28;20031;-83
2022/12/13 04:52:30;;;;;;;2.50;2.20;;;4.30;99.90;;;;;;5094490;28;20073;-83
2022/12/13 04:54:55;;;;;;;3.63;2.45;;;4.30;99.90;;;;;;5093296;28;20119;-84
2022/12/13 04:57:21;;;;;;;2.95;2.30;;;4.30;99.90;;;;;;5094586;28;20035;-84
2022/12/13 04:59:47;;;;;;;2.67;2.42;;;4.40;99.90;;;;;;5093845;28;20043;-84
2022/12/13 05:02:12;;;;;;;2.30;2.00;;;4.50;99.90;;;;;;5094367;28;20016;-84
2022/12/13 05:04:38;;;;;;;2.65;2.03;;;4.40;99.90;;;;;;5094331;28;20524;-84
2022/12/13 05:07:04;;;;;;;2.33;2.10;;;4.40;99.90;;;;;;5094180;28;20024;-85
2022/12/13 05:09:30;;;;;;;2.45;2.15;;;4.50;99.90;;;;;;5094223;28;20024;-84
2022/12/13 05:11:56;;;;;;;4.38;2.13;;;4.40;99.90;;;;;;5093823;28;20024;-85
2022/12/13 05:14:22;;;;;;;1.90;1.80;;;4.30;99.90;;;;;;5094007;28;20031;-85
2022/12/13 05:16:47;;;;;;;2.13;1.98;;;4.30;99.90;;;;;;5092853;28;20508;-85
2022/12/13 05:19:13;;;;;;;2.72;2.03;;;4.30;99.90;;;;;;5093872;28;20032;-85
2022/12/13 05:21:39;;;;;;;2.95;2.20;;;4.20;99.90;;;;;;5093986;28;20016;-84
2022/12/13 05:24:05;;;;;;;2.10;1.90;;;4.20;99.90;;;;;;5084702;28;20029;-84
2022/12/13 05:26:31;;;;;;;2.47;2.28;;;4.30;99.90;;;;;;5073578;28;20065;-84
2022/12/13 05:28:57;;;;;;;2.20;2.00;;;4.20;99.90;;;;;;5073453;28;20067;-85
2022/12/13 05:31:23;;;;;;;2.20;2.00;;;4.20;99.90;;;;;;5073338;28;20029;-84
2022/12/13 05:33:49;;;;;;;2.35;2.00;;;4.40;99.90;;;;;;5073558;28;20047;-85
2022/12/13 05:36:14;;;;;;;3.47;2.20;;;4.30;99.90;;;;;;5073462;28;20032;-84
2022/12/13 05:38:40;;;;;;;3.72;2.60;;;4.30;99.90;;;;;;5071682;28;20032;-84
2022/12/13 05:41:09;;;;;;;2.40;2.20;;;4.20;99.90;;;;;;5073509;28;20112;-83
2022/12/13 05:43:34;;;;;;;3.10;2.08;;;4.20;99.90;;;;;;5089381;28;20024;-83
2022/12/13 05:46:00;;;;;;;2.40;2.20;;;4.20;99.90;;;;;;5093701;28;20047;-83
2022/12/13 05:48:26;;;;;;;2.40;2.20;;;4.20;99.90;;;;;;5094160;28;20032;-84
2022/12/13 05:50:52;;;;;;;2.88;2.55;;;4.20;99.90;;;;;;5093851;28;20028;-84
2022/12/13 05:53:17;;;;;;;3.03;2.72;;;4.10;99.90;;;;;;5092536;28;20577;-84
2022/12/13 05:55:43;;;;;;;2.55;2.35;;;4.10;99.90;;;;;;5093233;28;20024;-84
2022/12/13 05:58:11;;;;;;;2.45;2.25;;;4.10;99.90;;;;;;5093874;28;20115;-84
2022/12/13 06:00:37;;;;;;;2.55;2.35;;;4.20;99.90;;;;;;5093651;28;20390;-84
2022/12/13 06:03:03;;;;;;;2.63;2.42;;;4.20;99.90;;;;;;5093912;28;20016;-84
2022/12/13 06:05:29;;;;;;;3.03;2.30;;;4.20;99.90;;;;;;5093595;28;20472;-84
2022/12/13 06:07:55;;;;;;;2.67;2.47;;;4.20;99.90;;;;;;5093707;28;20028;-84
2022/12/13 06:10:22;;;;;;;2.78;2.20;;;4.30;99.90;;;;;;5093498;28;20027;-83
2022/12/13 06:12:47;;;;;;;3.00;2.50;;;4.30;99.90;;;;;;5093432;28;20095;-83
2022/12/13 06:15:13;;;;;;;3.08;1.90;;;4.30;99.90;;;;;;5080586;28;20052;-84
2022/12/13 06:17:39;;;;;;;2.47;2.28;;;4.40;99.90;;;;;;5073139;28;20474;-83
2022/12/13 06:20:05;;;;;;;2.28;2.08;;;4.40;99.90;;;;;;5072045;28;20024;-84
2022/12/13 06:22:31;;;;;;;2.78;2.50;;;4.40;99.90;;;;;;5073083;28;20024;-84
2022/12/13 06:24:57;;;;;;;2.92;2.40;;;4.50;99.90;;;;;;5071921;28;20023;-84
2022/12/13 06:27:23;;;;;;;2.35;2.20;;;4.60;99.90;;;;;;5071592;28;20502;-84
2022/12/13 06:29:48;;;;;;;2.38;2.17;;;4.50;99.90;;;;;;5071433;28;20025;-84
2022/12/13 06:32:14;;;;;;;2.55;2.33;;;4.60;99.90;;;;;;5073031;28;20033;-84
2022/12/13 06:34:40;;;;;;;3.08;2.78;;;4.60;99.90;;;;;;5073016;28;20032;-84
2022/12/13 06:37:09;;;;;;;3.00;2.30;;;4.60;99.90;;;;;;5072801;28;20031;-83
2022/12/13 06:39:35;;;;;;;2.13;2.00;;;4.70;99.90;;;;;;5071346;28;20028;-84
2022/12/13 06:42:04;;;;;;;2.42;2.10;;;4.70;99.90;;;;;;5072615;28;20533;-83
2022/12/13 06:44:31;;;;;;;2.67;2.17;;;4.70;99.90;;;;;;5072584;28;20016;-84
2022/12/13 06:46:57;;;;;;;2.97;2.60;;;4.80;99.90;;;;;;5072467;28;20052;-83
2022/12/13 06:49:23;;;;;;;2.60;2.40;;;4.70;99.90;;;;;;5072472;28;20017;-83
2022/12/13 06:51:48;;;;;;;2.55;2.33;;;4.80;99.90;;;;;;5072467;28;20036;-84
2022/12/13 06:54:14;;;;;;;2.75;2.42;;;4.80;99.90;;;;;;5087950;28;20033;-83
2022/12/13 06:56:40;;;;;;;2.58;2.30;;;4.80;99.90;;;;;;5088034;28;20570;-83
2022/12/13 06:59:06;;;;;;;2.20;2.00;;;4.80;99.90;;;;;;5072225;28;20024;-83
2022/12/13 07:01:32;;;;;;;2.55;2.15;;;4.80;99.90;;;;;;5072377;28;20032;-84
2022/12/13 07:03:57;;;;;;;2.13;1.95;;;4.80;99.90;;;;;;5087993;28;20021;-83
2022/12/13 07:06:26;;;;;;;2.35;2.15;;;4.80;99.90;;;;;;5070868;28;20035;-83
2022/12/13 07:08:56;;;;;;;3.30;2.70;;;4.90;99.90;;;;;;5071260;28;20031;-84
2022/12/13 07:11:25;;;;;;;2.75;2.40;;;4.90;99.90;;;;;;5072132;28;20028;-84
2022/12/13 07:13:52;;;;;;;2.60;2.40;;;4.90;99.90;;;;;;5072300;28;20029;-83
2022/12/13 07:16:18;;;;;;;2.28;2.08;;;4.90;99.90;;;;;;5087491;28;20187;-83
2022/12/13 07:18:44;;;;;;;2.58;2.38;;;4.90;99.90;;;;;;5072262;28;20023;-83
2022/12/13 07:21:13;;;;;;;2.45;2.15;;;4.90;99.90;;;;;;5072147;28;20025;-83
2022/12/13 07:23:39;;;;;;;2.50;2.00;;;4.80;99.90;;;;;;5071729;28;20047;-83
2022/12/13 07:26:06;;;;;;;2.58;2.38;;;4.80;99.90;;;;;;5071674;28;20044;-83
2022/12/13 07:28:33;;;;;;;2.67;2.45;;;4.80;99.90;;;;;;5072039;28;20025;-83
2022/12/13 07:31:01;;;;;;;2.42;2.22;;;4.80;99.90;;;;;;5072102;28;20043;-83
2022/12/13 07:33:28;;;;;;;2.53;2.30;;;4.70;99.90;;;;;;5087624;28;20032;-83
2022/12/13 07:36:05;;;;;;;1.88;1.77;;;4.70;99.90;;;;;;5087273;28;20031;-83
2022/12/13 07:38:32;;;;;;;2.42;2.22;;;4.70;99.90;;;;;;5071812;28;20028;-83
2022/12/13 07:40:58;;;;;;;3.00;2.60;;;4.70;99.90;;;;;;5071906;28;20029;-83
2022/12/13 07:43:24;;;;;;;3.70;2.45;;;4.60;99.90;;;;;;5087035;28;20107;-83
2022/12/13 07:45:50;;;;;;;3.08;2.78;;;4.70;99.90;;;;;;5071806;28;20459;-83
2022/12/13 07:48:16;;;;;;;3.65;2.75;;;4.60;99.90;;;;;;5071850;28;20029;-83
2022/12/13 07:50:42;;;;;;;4.15;3.03;;;4.70;99.90;;;;;;5070361;28;20493;-83
2022/12/13 07:53:08;;;;;;;3.95;3.10;;;4.70;99.90;;;;;;5071946;28;20027;-83
2022/12/13 07:55:35;;;;;;;6.82;3.40;;;4.70;99.90;;;;;;5071627;28;20485;-83
2022/12/13 07:58:11;;;;;;;4.00;3.42;;;4.80;99.90;;;;;;5071702;28;20025;-85
2022/12/13 08:00:41;;;;;;;3.92;3.30;;;4.70;99.90;;;;;;5071480;28;20051;-85
2022/12/13 08:03:07;;;;;;;5.28;4.05;;;4.80;99.90;;;;;;5071670;28;20009;-85
2022/12/13 08:05:35;;;;;;;4.82;3.97;;;4.70;99.90;;;;;;5071308;28;20029;-85
2022/12/13 08:08:01;;;;;;;4.05;3.10;;;4.80;99.90;;;;;;5070907;28;20021;-84
2022/12/13 08:10:27;;;;;;;3.47;2.75;;;4.80;99.90;;;;;;5069390;28;20524;-84
2022/12/13 08:12:53;;;;;;;3.53;2.97;;;4.90;99.90;;;;;;5070022;28;20021;-86
2022/12/13 08:15:20;;;;;;;4.00;3.08;;;5.00;99.90;;;;;;5065845;28;20548;-84
2022/12/13 08:17:46;;;;;;;4.55;3.40;;;5.00;99.90;;;;;;5068511;28;20490;-85
2022/12/13 08:20:12;;;;;;;5.25;3.63;;;5.10;99.90;;;;;;5082151;28;20355;-84
2022/12/13 08:22:38;;;;;;;4.22;3.55;;;5.10;99.90;;;;;;5073740;28;20505;-86
2022/12/13 08:25:05;;;;;;;5.50;3.88;;;5.20;99.90;;;;;;5073071;28;20050;-84
2022/12/13 08:27:31;;;;;;;4.38;3.28;;;5.30;99.90;;;;;;5074265;28;20249;-85
2022/12/13 08:29:57;;;;;;;6.28;3.42;;;5.40;99.90;;;;;;5069170;28;20033;-84
2022/12/13 08:32:23;;;;;;;4.88;3.65;;;5.50;99.90;;;;;;5073405;28;20017;-85
2022/12/13 08:34:48;;;;;;;4.20;3.20;;;5.60;99.90;;;;;;5072414;28;20115;-86
2022/12/13 08:37:14;;;;;;;5.65;3.30;;;5.60;99.90;;;;;;5072904;28;20109;-84
2022/12/13 08:39:40;;;;;;;4.05;3.33;;;5.70;99.90;;;;;;5073359;28;20046;-86
2022/12/13 08:42:09;;;;;;;5.18;3.22;;;5.80;99.90;;;;;;5074477;28;20488;-86
2022/12/13 08:44:35;;;;;;;3.80;3.33;;;5.90;99.90;;;;;;5070719;28;20047;-86
2022/12/13 08:47:01;;;;;;;5.00;3.42;;;5.90;99.90;;;;;;5073275;28;20553;-86
2022/12/13 08:49:26;;;;;;;5.30;3.80;;;5.90;99.90;;;;;;5073158;28;20416;-85
2022/12/13 08:51:53;;;;;;;4.57;3.58;;;6.00;99.90;;;;;;5072954;28;20027;-85
2022/12/13 08:54:18;;;;;;;4.72;3.33;;;6.00;99.90;;;;;;5071603;28;20119;-84
2022/12/13 08:56:44;;;;;;;7.15;4.35;;;6.10;99.90;;;;;;5073525;28;20545;-84
2022/12/13 08:59:10;;;;;;;5.35;4.28;;;6.10;99.90;;;;;;5073359;28;20021;-84
2022/12/13 09:01:35;;;;;;;5.82;4.30;;;6.10;99.90;;;;;;5093502;28;20103;-84
2022/12/13 09:04:02;;;;;;;6.10;4.20;;;6.20;99.90;;;;;;5092726;28;20024;-83
2022/12/13 09:06:28;;;;;;;5.07;4.20;;;6.30;99.90;;;;;;5073269;28;20170;-84
2022/12/13 09:08:53;;;;;;;4.28;3.50;;;6.50;99.90;;;;;;5071499;28;20133;-85
2022/12/13 09:11:20;;;;;;;5.25;4.22;;;6.60;99.90;;;;;;5089880;28;20537;-84
2022/12/13 09:13:46;;;;;;;5.55;4.22;;;6.70;99.90;;;;;;5093359;28;20081;-84
2022/12/13 09:16:15;;;;;;;5.65;3.95;;;6.80;99.90;;;;;;5092749;28;20099;-84
2022/12/13 09:18:41;;;;;;;6.68;4.85;;;7.00;99.90;;;;;;5092212;28;20100;-85
2022/12/13 09:21:08;;;;;;;6.47;5.07;;;7.10;99.90;;;;;;5083393;28;20025;-84
2022/12/13 09:23:34;;;;;;;6.57;4.80;;;7.20;99.90;;;;;;5071243;28;20502;-86
2022/12/13 09:26:00;;;;;;;8.77;5.03;;;7.10;99.90;;;;;;5072750;28;20044;-83
2022/12/13 09:28:28;;;;;;;7.50;5.18;;;7.10;99.90;;;;;;5072324;28;20029;-84
2022/12/13 09:30:58;;;;;;;5.45;4.60;;;7.20;99.90;;;;;;5071403;28;20056;-84
2022/12/13 09:33:24;;;;;;;6.70;4.78;;;7.20;99.90;;;;;;5073485;28;20095;-87
2022/12/13 09:35:51;;;;;;;9.05;5.43;;;7.30;99.90;;;;;;5072964;28;20063;-83
2022/12/13 09:38:17;;;;;;;6.43;5.05;;;7.30;99.90;;;;;;5071003;28;20024;-81
2022/12/13 09:40:46;;;;;;;6.82;4.97;;;7.50;99.90;;;;;;5072242;28;20482;-81
2022/12/13 09:43:20;;;;;;;8.57;5.00;;;7.50;99.90;;;;;;5083324;28;20111;-81
2022/12/13 09:45:47;;;;;;;8.63;6.32;;;7.50;99.90;;;;;;5081886;28;20020;-81
2022/12/13 09:48:20;;;;;;;9.77;6.57;;;7.60;99.90;;;;;;5072098;28;20028;-82
2022/12/13 09:50:47;;;;;;;10.40;6.40;;;7.70;99.90;;;;;;5072571;28;20067;-81
2022/12/13 09:53:16;;;;;;;10.93;6.35;;;7.70;99.90;;;;;;5072231;28;20516;-81
2022/12/13 09:55:46;;;;;;;8.43;5.22;;;7.60;99.90;;;;;;5082204;28;20054;-82
2022/12/13 09:58:25;;;;;;;13.70;8.65;;;7.60;99.90;;;;;;5089012;28;20028;-82
2022/12/13 10:00:52;;;;;;;13.82;8.00;;;7.70;99.90;;;;;;5071782;28;20033;-82
2022/12/13 10:03:20;;;;;;;11.13;7.47;;;7.80;99.90;;;;;;5071266;28;20024;-83
2022/12/13 10:05:57;;;;;;;11.70;7.13;;;7.80;99.90;;;;;;5068261;28;20025;-82
2022/12/13 10:08:31;;;;;;;9.93;6.35;;;7.80;99.90;;;;;;5071335;28;20028;-82
2022/12/13 10:10:56;;;;;;;9.57;6.47;;;7.90;99.90;;;;;;5080696;28;20036;-82
2022/12/13 10:14:08;;;;;;;10.95;7.10;;;7.90;99.90;;;;;;5091453;28;20554;-82
2022/12/13 10:16:33;;;;;;;7.78;5.75;;;7.90;99.90;;;;;;5062985;28;20327;-82
2022/12/13 10:19:01;;;;;;;8.60;5.35;;;7.80;99.90;;;;;;5051548;28;20494;-82
2022/12/13 10:21:34;;;;;;;8.75;5.25;;;8.00;99.90;;;;;;5068489;28;20056;-82
2022/12/13 10:24:21;;;;;;;7.22;5.10;;;8.00;99.90;;;;;;5068764;28;20021;-82
2022/12/13 10:26:47;;;;;;;8.73;5.78;;;8.10;99.90;;;;;;5068147;28;20045;-82
2022/12/13 10:29:13;;;;;;;6.63;5.20;;;8.10;99.90;;;;;;5051970;28;20039;-82
2022/12/13 10:31:44;;;;;;;9.13;5.32;;;8.10;99.90;;;;;;5052917;28;20120;-82
2022/12/13 10:34:18;;;;;;;7.25;5.55;;;8.30;99.90;;;;;;5048614;28;20132;-81
2022/12/13 10:36:44;;;;;;;7.68;5.38;;;8.30;99.90;;;;;;5047022;28;20036;-81
2022/12/13 10:39:17;;;;;;;7.43;5.25;;;8.30;99.90;;;;;;5068385;28;20064;-82
2022/12/13 10:41:45;;;;;;;6.50;4.80;;;8.60;99.90;;;;;;5052597;28;20029;-81
2022/12/13 10:44:10;;;;;;;6.82;5.00;;;8.70;99.90;;;;;;5048058;28;20021;-81
2022/12/13 10:46:40;;;;;;;7.05;5.03;;;8.70;99.90;;;;;;5045493;28;20043;-81
2022/12/13 10:49:23;;;;;;;6.60;4.93;;;8.70;99.90;;;;;;5068120;28;20032;-81
2022/12/13 10:51:52;;;;;;;6.60;5.47;;;8.70;99.90;;;;;;5078048;28;20044;-81
2022/12/13 10:54:37;;;;;;;6.68;4.72;;;8.70;99.90;;;;;;5090801;28;20071;-81
2022/12/13 10:57:03;;;;;;;4.95;4.43;;;8.80;99.90;;;;;;5090369;28;20036;-82
2022/12/13 10:59:37;;;;;;;6.65;4.40;;;8.80;99.90;;;;;;5090986;28;20081;-82
2022/12/13 11:02:34;;;;;;;6.82;4.82;;;8.80;99.90;;;;;;5090691;28;20170;-82
2022/12/13 11:05:20;;;;;;;7.07;4.88;;;9.00;99.90;;;;;;5087529;28;20554;-82
2022/12/13 11:07:45;;;;;;;4.93;4.38;;;9.00;99.90;;;;;;5070134;28;20024;-82
2022/12/13 11:10:37;;;;;;;7.57;4.68;;;9.00;99.90;;;;;;5071595;28;20024;-82
2022/12/13 11:13:05;;;;;;;6.32;4.45;;;9.00;99.90;;;;;;5084186;28;20044;-82
2022/12/13 11:15:36;;;;;;;7.55;4.93;;;9.20;99.90;;;;;;5070762;28;20047;-82
2022/12/13 11:18:07;;;;;;;6.22;4.90;;;9.40;99.90;;;;;;5068664;28;20021;-85
2022/12/13 11:20:35;;;;;;;5.30;3.90;;;9.40;99.90;;;;;;5081732;28;20062;-84
2022/12/13 11:23:06;;;;;;;6.38;5.05;;;9.40;99.90;;;;;;5068283;28;20028;-84
2022/12/13 11:25:40;;;;;;;10.63;5.85;;;9.40;99.90;;;;;;5085603;28;20516;-84
2022/12/13 11:28:08;;;;;;;9.43;6.85;;;9.50;99.90;;;;;;5070052;28;20025;-83
2022/12/13 11:30:45;;;;;;;9.65;6.13;;;9.60;99.90;;;;;;5070199;28;20112;-83
2022/12/13 11:33:16;;;;;;;10.48;6.43;;;9.70;99.90;;;;;;5070044;28;20063;-84
2022/12/13 11:35:55;;;;;;;8.88;6.68;;;9.70;99.90;;;;;;5070419;28;20025;-86
2022/12/13 11:38:38;;;;;;;7.40;6.15;;;9.80;99.90;;;;;;5070052;28;20056;-84
2022/12/13 11:41:18;;;;;;;9.65;6.32;;;10.10;99.90;;;;;;5068304;28;20052;-84
2022/12/13 11:43:54;;;;;;;9.27;6.95;;;10.20;99.90;;;;;;5070095;28;20032;-84
2022/12/13 11:46:36;;;;;;;11.18;6.40;;;10.10;99.90;;;;;;5070370;28;20639;-84
2022/12/13 11:49:08;;;;;;;9.45;7.35;;;10.00;99.90;;;;;;5069570;28;20105;-83
2022/12/13 11:51:49;;;;;;;8.57;6.28;;;10.10;99.90;;;;;;5069839;28;20028;-83
2022/12/13 11:54:22;;;;;;;6.72;5.35;;;10.10;99.90;;;;;;5067495;28;20521;-83
2022/12/13 11:56:48;;;;;;;7.18;5.65;;;10.10;99.90;;;;;;5069885;28;20079;-83
2022/12/13 11:59:32;;;;;;;7.57;5.82;;;10.20;99.90;;;;;;5068646;28;20516;-83
2022/12/13 12:02:24;;;;;;;8.02;5.70;;;10.20;99.90;;;;;;5069761;28;20021;-83
2022/12/13 12:04:52;;;;;;;6.95;5.22;;;10.20;99.90;;;;;;5066671;28;20498;-83
2022/12/13 12:07:44;;;;;;;8.38;5.50;;;10.20;99.90;;;;;;5068422;28;20033;-83
2022/12/13 12:10:12;;;;;;;10.15;5.95;;;10.30;99.90;;;;;;5068379;28;20056;-83
2022/12/13 12:12:44;;;;;;;7.43;5.55;;;10.30;99.90;;;;;;5069363;28;20100;-83
2022/12/13 12:15:21;;;;;;;7.95;5.65;;;10.30;99.90;;;;;;5069883;28;20048;-83
2022/12/13 12:17:47;;;;;;;8.73;5.68;;;10.30;99.90;;;;;;5070134;28;20097;-83
2022/12/13 12:20:18;;;;;;;9.88;6.18;;;10.40;99.90;;;;;;5069646;28;20028;-83
2022/12/13 12:23:26;;;;;;;9.50;6.32;;;10.40;99.90;;;;;;5069980;28;20054;-83
2022/12/13 12:26:13;;;;;;;9.85;7.13;;;10.20;99.90;;;;;;5047401;28;20144;-83
2022/12/13 12:29:04;;;;;;;9.23;7.07;;;10.10;99.90;;;;;;5047790;28;20037;-83
2022/12/13 12:31:58;;;;;;;11.20;6.53;;;10.10;99.90;;;;;;5054953;28;20068;-83
2022/12/13 12:35:11;;;;;;;10.77;7.47;;;10.10;99.90;;;;;;5050868;28;20136;-83
2022/12/13 12:37:53;;;;;;;10.85;7.95;;;10.10;99.90;;;;;;5016322;28;20034;-85
2022/12/13 12:40:33;;;;;;;11.70;8.65;;;10.10;99.90;;;;;;5007928;28;20026;-86
2022/12/13 12:43:12;;;;;;;10.88;8.60;;;10.10;99.90;;;;;;5007392;28;20100;-86
2022/12/13 12:45:53;;;;;;;10.57;7.70;;;10.10;99.90;;;;;;5008086;28;20040;-86
2022/12/13 12:48:37;;;;;;;;;;;10.10;99.90;;;;;;5027761;28;20208;-86
2022/12/13 12:51:03;;;;;;;14.07;8.80;;;10.10;99.90;;;;;;5014917;28;19948;-86
2022/12/13 12:53:37;;;;;;;11.32;8.55;;;10.00;99.90;;;;;;5004998;28;20089;-87
2022/12/13 12:56:27;;;;;;;11.27;8.73;;;10.10;99.90;;;;;;5007208;28;20121;-86
2022/12/13 12:58:56;;;;;;;12.98;9.25;;;10.10;99.90;;;;;;4990627;28;20033;-89
2022/12/13 13:01:42;;;;;;;10.95;8.13;;;10.10;99.90;;;;;;5007012;28;20105;-88
2022/12/13 13:04:11;;;;;;;10.20;8.02;;;10.10;99.90;;;;;;5026255;28;20053;-88
2022/12/13 13:06:42;;;;;;;13.00;8.13;;;10.10;99.90;;;;;;5027812;28;20044;-88
2022/12/13 13:09:11;;;;;;;13.15;8.43;;;10.10;99.90;;;;;;5030091;28;20055;-87
2022/12/13 13:11:40;;;;;;;12.73;8.23;;;10.10;99.90;;;;;;5030011;28;20046;-88
2022/12/13 13:14:21;;;;;;;11.38;8.73;;;10.10;99.90;;;;;;5044925;28;20040;-87
2022/12/13 13:16:47;;;;;;;10.02;7.43;;;10.10;99.90;;;;;;5063253;28;20020;-88
2022/12/13 13:19:12;;;;;;;14.02;8.70;;;10.10;99.90;;;;;;5052241;28;20036;-88